createdAt,value
2022-08-10T00:01:02.431Z,26.49
2022-08-10T00:03:29.369Z,26.49
2022-08-10T00:05:56.181Z,26.48
2022-08-10T00:08:24.257Z,26.48
2022-08-10T00:10:50.907Z,26.49
2022-08-10T00:13:17.259Z,26.47
2022-08-10T00:15:52.965Z,26.46
2022-08-10T00:18:35.997Z,26.46
2022-08-10T00:21:02.807Z,26.46
2022-08-10T00:23:29.293Z,26.46
2022-08-10T00:25:55.581Z,26.45
2022-08-10T00:28:22.075Z,26.45
2022-08-10T00:30:48.660Z,26.43
2022-08-10T00:33:14.981Z,26.45
2022-08-10T00:35:41.753Z,26.44
2022-08-10T00:38:08.175Z,26.43
2022-08-10T00:40:36.886Z,26.44
2022-08-10T00:43:04.568Z,26.42
2022-08-10T00:45:30.870Z,26.42
2022-08-10T00:47:57.442Z,26.42
2022-08-10T00:50:28.546Z,26.42
2022-08-10T00:52:54.855Z,26.41
2022-08-10T00:55:21.326Z,26.40
2022-08-10T00:57:54.944Z,26.40
2022-08-10T01:00:22.321Z,26.40
2022-08-10T01:02:49.138Z,26.40
2022-08-10T01:05:16.192Z,26.39
2022-08-10T01:07:42.602Z,26.39
2022-08-10T01:10:09.074Z,26.38
2022-08-10T01:12:38.735Z,26.39
2022-08-10T01:15:07.466Z,26.38
2022-08-10T01:17:49.850Z,26.38
2022-08-10T01:20:30.161Z,26.38
2022-08-10T01:22:57.849Z,26.37
2022-08-10T01:25:24.283Z,26.38
2022-08-10T01:27:50.762Z,26.37
2022-08-10T01:30:17.231Z,26.36
2022-08-10T01:32:44.099Z,26.36
2022-08-10T01:35:10.685Z,26.36
2022-08-10T01:37:37.119Z,26.35
2022-08-10T01:40:03.585Z,26.36
2022-08-10T01:42:29.978Z,26.34
2022-08-10T01:44:56.416Z,26.35
2022-08-10T01:47:23.519Z,26.35
2022-08-10T01:49:49.996Z,26.34
2022-08-10T01:52:18.137Z,26.33
2022-08-10T01:54:44.837Z,26.32
2022-08-10T01:57:11.206Z,26.32
2022-08-10T01:59:37.827Z,26.32
2022-08-10T02:02:04.157Z,26.31
2022-08-10T02:04:30.565Z,26.31
2022-08-10T02:06:57.391Z,26.31
2022-08-10T02:09:23.701Z,26.31
2022-08-10T02:12:05.151Z,26.30
2022-08-10T02:14:34.719Z,26.30
2022-08-10T02:17:01.298Z,26.30
2022-08-10T02:19:27.610Z,26.29
2022-08-10T02:22:36.531Z,26.28
2022-08-10T02:24:40.371Z,26.28
2022-08-10T02:27:06.814Z,26.28
2022-08-10T02:29:33.342Z,26.27
2022-08-10T02:31:59.702Z,26.27
2022-08-10T02:34:26.215Z,26.26
2022-08-10T02:36:52.559Z,26.27
2022-08-10T02:39:19.109Z,26.25
2022-08-10T02:45:14.710Z,26.24
2022-08-10T02:45:20.986Z,26.25
2022-08-10T02:47:19.067Z,26.25
2022-08-10T02:49:45.502Z,26.24
2022-08-10T02:52:12.006Z,26.24
2022-08-10T02:54:38.367Z,26.24
2022-08-10T02:57:04.703Z,26.22
2022-08-10T02:59:38.536Z,26.22
2022-08-10T03:02:06.913Z,26.23
2022-08-10T03:04:55.117Z,26.23
2022-08-10T03:07:19.650Z,26.21
2022-08-10T03:10:13.236Z,26.20
2022-08-10T03:12:41.136Z,26.20
2022-08-10T03:15:07.546Z,26.19
2022-08-10T03:17:33.878Z,26.19
2022-08-10T03:20:33.546Z,26.19
2022-08-10T03:22:48.497Z,26.18
2022-08-10T03:25:14.867Z,26.18
2022-08-10T03:27:41.186Z,26.18
2022-08-10T03:30:32.942Z,26.17
2022-08-10T03:32:54.093Z,26.16
2022-08-10T03:35:20.490Z,26.16
2022-08-10T03:37:46.985Z,26.15
2022-08-10T03:40:13.333Z,26.16
2022-08-10T03:42:39.693Z,26.16
2022-08-10T03:45:06.386Z,26.15
2022-08-10T03:47:32.746Z,26.14
2022-08-10T03:49:59.106Z,26.13
2022-08-10T03:52:33.312Z,26.15
2022-08-10T03:54:59.772Z,26.14
2022-08-10T03:57:26.210Z,26.13
2022-08-10T03:59:52.943Z,26.12
2022-08-10T04:02:45.245Z,26.11
2022-08-10T04:05:05.615Z,26.13
2022-08-10T04:07:31.943Z,26.12
2022-08-10T04:09:58.900Z,26.11
2022-08-10T04:12:25.325Z,26.12
2022-08-10T04:14:53.159Z,26.11
2022-08-10T04:18:04.194Z,26.10
2022-08-10T04:20:06.462Z,26.10
2022-08-10T04:22:32.832Z,26.10
2022-08-10T04:24:59.219Z,26.09
2022-08-10T04:27:25.976Z,26.10
2022-08-10T04:29:52.633Z,26.08
2022-08-10T04:32:19.022Z,26.07
2022-08-10T04:34:45.341Z,26.07
2022-08-10T04:37:11.779Z,26.07
2022-08-10T04:39:38.197Z,26.06
2022-08-10T04:42:04.670Z,26.05
2022-08-10T04:44:31.184Z,26.06
2022-08-10T04:46:59.191Z,26.05
2022-08-10T04:49:54.897Z,26.04
2022-08-10T04:52:12.574Z,26.04
2022-08-10T04:54:38.965Z,26.05
2022-08-10T04:57:05.737Z,26.05
2022-08-10T04:59:32.189Z,26.07
2022-08-10T05:02:28.075Z,26.09
2022-08-10T05:04:44.897Z,26.08
2022-08-10T05:07:15.772Z,26.05
2022-08-10T05:10:02.555Z,26.09
2022-08-10T05:12:30.244Z,26.10
2022-08-10T05:14:56.538Z,26.05
2022-08-10T05:17:22.859Z,26.07
2022-08-10T05:20:01.551Z,26.05
2022-08-10T05:22:31.582Z,26.09
2022-08-10T05:24:58.112Z,26.04
2022-08-10T05:27:24.473Z,26.03
2022-08-10T05:30:01.812Z,26.05
2022-08-10T05:32:29.875Z,26.02
2022-08-10T05:34:56.231Z,26.02
2022-08-10T05:38:13.074Z,26.02
2022-08-10T05:40:09.041Z,26.01
2022-08-10T05:42:35.527Z,26.02
2022-08-10T05:45:02.039Z,26.06
2022-08-10T05:47:28.499Z,26.07
2022-08-10T05:50:15.055Z,26.03
2022-08-10T05:52:41.454Z,26.01
2022-08-10T05:55:08.147Z,26.03
2022-08-10T05:57:34.529Z,26.03
2022-08-10T06:00:30.915Z,26.00
2022-08-10T06:02:47.532Z,25.98
2022-08-10T06:05:14.240Z,25.97
2022-08-10T06:07:40.610Z,26.01
2022-08-10T06:10:10.476Z,26.00
2022-08-10T06:12:55.718Z,25.97
2022-08-10T06:15:51.911Z,25.98
2022-08-10T06:18:10.063Z,26.01
2022-08-10T06:20:36.508Z,25.92
2022-08-10T06:23:03.266Z,25.88
2022-08-10T06:26:10.503Z,25.87
2022-08-10T06:28:16.314Z,25.84
2022-08-10T06:30:42.781Z,25.86
2022-08-10T06:33:09.166Z,25.88
2022-08-10T06:35:35.497Z,25.88
2022-08-10T06:38:01.939Z,25.84
2022-08-10T06:40:31.328Z,25.90
2022-08-10T06:42:57.727Z,26.04
2022-08-10T06:45:24.483Z,25.88
2022-08-10T06:47:50.807Z,25.91
2022-08-10T06:50:45.565Z,26.07
2022-08-10T06:53:04.008Z,26.02
2022-08-10T06:55:49.946Z,26.00
2022-08-10T06:58:16.737Z,25.89
2022-08-10T07:00:43.696Z,25.89
2022-08-10T07:03:10.052Z,25.95
2022-08-10T07:05:36.465Z,25.99
2022-08-10T07:08:02.735Z,25.95
2022-08-10T07:10:41.209Z,25.90
2022-08-10T07:13:14.204Z,25.97
2022-08-10T07:15:59.988Z,26.01
2022-08-10T07:18:26.969Z,25.96
2022-08-10T07:20:56.311Z,25.91
2022-08-10T07:23:56.940Z,26.02
2022-08-10T07:26:09.165Z,26.02
2022-08-10T07:28:35.602Z,26.13
2022-08-10T07:31:03.068Z,26.00
2022-08-10T07:33:31.176Z,26.01
2022-08-10T07:35:57.658Z,26.14
2022-08-10T07:38:24.146Z,26.08
2022-08-10T07:40:50.520Z,26.00
2022-08-10T07:43:17.745Z,25.96
2022-08-10T07:45:44.104Z,25.94
2022-08-10T07:48:10.657Z,25.92
2022-08-10T07:50:37.209Z,25.90
2022-08-10T07:53:04.456Z,25.99
2022-08-10T07:56:04.108Z,25.99
2022-08-10T07:58:17.935Z,25.95
2022-08-10T08:00:44.595Z,25.86
2022-08-10T08:03:10.976Z,25.85
2022-08-10T08:05:59.031Z,25.82
2022-08-10T08:08:25.026Z,25.79
2022-08-10T08:10:54.773Z,25.82
2022-08-10T08:13:21.361Z,25.78
2022-08-10T08:16:17.680Z,25.77
2022-08-10T08:18:37.233Z,25.84
2022-08-10T08:24:02.473Z,25.83
2022-08-10T08:24:07.957Z,25.83
2022-08-10T08:26:38.515Z,25.88
2022-08-10T08:29:05.143Z,25.86
2022-08-10T08:31:31.615Z,25.93
2022-08-10T08:33:58.005Z,25.90
2022-08-10T08:36:24.337Z,25.93
2022-08-10T08:38:50.917Z,25.95
2022-08-10T08:41:17.227Z,25.96
2022-08-10T08:43:43.637Z,26.00
2022-08-10T08:46:10.263Z,25.95
2022-08-10T08:48:44.515Z,25.99
2022-08-10T08:51:11.499Z,25.96
2022-08-10T08:54:01.668Z,26.00
2022-08-10T08:56:24.257Z,25.97
2022-08-10T08:58:58.217Z,25.98
2022-08-10T09:01:40.209Z,25.99
2022-08-10T09:04:19.616Z,25.99
2022-08-10T09:06:47.462Z,26.02
2022-08-10T09:09:14.883Z,25.96
2022-08-10T09:11:46.237Z,25.95
2022-08-10T09:14:12.597Z,25.95
2022-08-10T09:16:42.530Z,25.99
2022-08-10T09:19:09.187Z,25.99
2022-08-10T09:21:36.029Z,26.01
2022-08-10T09:24:09.646Z,26.00
2022-08-10T09:26:37.381Z,26.03
2022-08-10T09:29:12.023Z,26.00
2022-08-10T09:31:39.680Z,26.03
2022-08-10T09:36:28.401Z,26.05
2022-08-10T09:36:52.653Z,26.06
2022-08-10T09:40:56.637Z,26.03
2022-08-10T09:42:06.079Z,26.07
2022-08-10T09:44:57.204Z,26.05
2022-08-10T09:48:01.166Z,26.07
2022-08-10T09:50:10.978Z,26.06
2022-08-10T09:52:38.785Z,26.07
2022-08-10T09:55:05.374Z,26.06
2022-08-10T09:57:44.487Z,26.06
2022-08-10T10:00:12.704Z,26.06
2022-08-10T10:02:40.254Z,26.06
2022-08-10T10:05:06.569Z,26.05
2022-08-10T10:07:33.037Z,26.05
2022-08-10T10:09:59.444Z,26.05
2022-08-10T10:12:25.726Z,26.08
2022-08-10T10:14:52.419Z,26.06
2022-08-10T10:17:18.823Z,26.04
2022-08-10T10:19:45.302Z,26.05
2022-08-10T10:22:11.701Z,26.06
2022-08-10T10:24:38.893Z,26.05
2022-08-10T10:27:16.565Z,26.05
2022-08-10T10:29:58.359Z,26.05
2022-08-10T10:32:25.694Z,26.06
2022-08-10T10:34:58.406Z,26.05
2022-08-10T10:38:10.239Z,26.04
2022-08-10T10:40:11.142Z,26.06
2022-08-10T10:42:45.729Z,26.04
2022-08-10T10:45:12.392Z,26.06
2022-08-10T10:47:39.644Z,26.04
2022-08-10T10:50:05.989Z,26.05
2022-08-10T10:52:34.407Z,26.06
2022-08-10T10:55:00.947Z,26.06
2022-08-10T10:58:00.032Z,26.05
2022-08-10T11:00:13.852Z,26.05
2022-08-10T11:02:40.237Z,26.06
2022-08-10T11:05:06.762Z,26.05
2022-08-10T11:07:33.965Z,26.05
2022-08-10T11:10:09.052Z,26.04
2022-08-10T11:12:50.875Z,26.05
2022-08-10T11:15:17.527Z,26.05
2022-08-10T11:17:43.918Z,26.04
2022-08-10T11:20:10.276Z,26.04
2022-08-10T11:22:37.172Z,26.04
2022-08-10T11:25:04.049Z,26.04
2022-08-10T11:27:30.430Z,26.05
2022-08-10T11:29:56.950Z,26.03
2022-08-10T11:32:23.272Z,26.04
2022-08-10T11:35:12.030Z,26.04
2022-08-10T11:38:31.264Z,26.04
2022-08-10T11:40:22.766Z,26.04
2022-08-10T11:42:49.305Z,26.05
2022-08-10T11:45:15.712Z,26.05
2022-08-10T11:47:42.125Z,26.04
2022-08-10T11:50:08.583Z,26.04
2022-08-10T11:52:35.419Z,26.03
2022-08-10T11:55:02.067Z,26.05
2022-08-10T11:57:53.174Z,26.05
2022-08-10T12:00:15.125Z,26.05
2022-08-10T12:02:41.710Z,26.04
2022-08-10T12:05:08.107Z,26.05
2022-08-10T12:08:54.862Z,26.04
2022-08-10T12:10:20.850Z,26.04
2022-08-10T12:12:47.297Z,26.03
2022-08-10T12:15:13.693Z,26.05
2022-08-10T12:17:40.098Z,26.04
2022-08-10T12:20:06.593Z,26.04
2022-08-10T12:22:33.081Z,26.04
2022-08-10T12:24:59.589Z,26.05
2022-08-10T12:27:26.097Z,26.04
2022-08-10T12:29:52.447Z,26.05
2022-08-10T12:32:25.513Z,26.04
2022-08-10T12:34:52.248Z,26.04
2022-08-10T12:37:18.625Z,26.04
2022-08-10T12:39:45.045Z,26.04
2022-08-10T12:42:11.862Z,26.04
2022-08-10T12:44:58.305Z,26.05
2022-08-10T12:47:24.748Z,26.05
2022-08-10T12:50:14.200Z,26.05
2022-08-10T12:52:37.709Z,26.05
2022-08-10T12:55:04.257Z,26.05
2022-08-10T12:57:30.640Z,26.04
2022-08-10T12:59:57.067Z,26.06
2022-08-10T13:02:23.551Z,26.05
2022-08-10T13:04:50.063Z,26.05
2022-08-10T13:08:24.152Z,26.06
2022-08-10T13:10:03.010Z,26.07
2022-08-10T13:12:35.974Z,26.07
2022-08-10T13:15:45.073Z,26.07
2022-08-10T13:17:52.896Z,26.08
2022-08-10T13:20:19.505Z,26.08
2022-08-10T13:22:45.891Z,26.09
2022-08-10T13:25:12.389Z,26.09
2022-08-10T13:28:00.691Z,26.08
2022-08-10T13:30:33.704Z,26.09
2022-08-10T13:33:04.554Z,26.09
2022-08-10T13:35:30.927Z,26.09
2022-08-10T13:37:57.355Z,26.09
2022-08-10T13:40:23.735Z,26.10
2022-08-10T13:42:50.219Z,26.10
2022-08-10T13:45:16.733Z,26.11
2022-08-10T13:47:48.971Z,26.12
2022-08-10T13:50:16.444Z,26.11
2022-08-10T13:52:45.834Z,26.12
2022-08-10T13:55:12.224Z,26.11
2022-08-10T13:57:47.474Z,26.13
2022-08-10T14:00:36.328Z,26.11
2022-08-10T14:03:00.503Z,26.13
2022-08-10T14:05:27.544Z,26.13
2022-08-10T14:08:00.951Z,26.12
2022-08-10T14:11:02.028Z,26.13
2022-08-10T14:13:14.566Z,26.14
2022-08-10T14:15:40.986Z,26.13
2022-08-10T14:18:10.200Z,26.14
2022-08-10T14:20:36.544Z,26.12
2022-08-10T14:23:02.908Z,26.13
2022-08-10T14:25:29.367Z,26.14
2022-08-10T14:28:03.094Z,26.14
2022-08-10T14:30:31.270Z,26.15
2022-08-10T14:32:57.646Z,26.14
2022-08-10T14:36:18.996Z,26.15
2022-08-10T14:38:10.483Z,26.15
2022-08-10T14:40:36.849Z,26.15
2022-08-10T14:43:03.258Z,26.16
2022-08-10T14:45:30.648Z,26.17
2022-08-10T14:48:00.932Z,26.16
2022-08-10T14:50:31.664Z,26.17
2022-08-10T14:52:59.169Z,26.17
2022-08-10T14:55:25.571Z,26.17
2022-08-10T14:58:16.620Z,26.18
2022-08-10T15:00:42.526Z,26.18
2022-08-10T15:03:11.232Z,26.19
2022-08-10T15:05:59.319Z,26.20
2022-08-10T15:08:25.913Z,26.22
2022-08-10T15:10:52.299Z,26.20
2022-08-10T15:13:34.974Z,26.20
2022-08-10T15:16:12.575Z,26.21
2022-08-10T15:18:39.849Z,26.22
2022-08-10T15:21:17.059Z,26.21
2022-08-10T15:24:05.201Z,26.22
2022-08-10T15:26:30.700Z,26.22
2022-08-10T15:29:23.326Z,26.23
2022-08-10T15:31:46.778Z,26.25
2022-08-10T15:34:16.214Z,26.25
2022-08-10T15:36:42.556Z,26.23
2022-08-10T15:39:16.745Z,26.25
2022-08-10T15:41:59.538Z,26.25
2022-08-10T15:44:26.715Z,26.27
2022-08-10T15:46:53.644Z,26.27
2022-08-10T15:49:20.485Z,26.28
2022-08-10T15:51:54.156Z,26.27
2022-08-10T15:54:33.600Z,26.28
2022-08-10T15:57:00.820Z,26.29
2022-08-10T15:59:27.287Z,26.30
2022-08-10T16:02:14.355Z,26.30
2022-08-10T16:04:40.123Z,26.31
2022-08-10T16:07:06.552Z,26.30
2022-08-10T16:10:23.797Z,26.31
2022-08-10T16:12:29.603Z,26.33
2022-08-10T16:14:56.671Z,26.33
2022-08-10T16:17:23.372Z,26.33
2022-08-10T16:19:49.849Z,26.34
2022-08-10T16:22:36.738Z,26.34
2022-08-10T16:25:02.930Z,26.35
2022-08-10T16:27:29.255Z,26.35
2022-08-10T16:29:57.056Z,26.35
2022-08-10T16:32:23.482Z,26.35
2022-08-10T16:34:49.821Z,26.36
2022-08-10T16:37:16.147Z,26.34
2022-08-10T16:39:57.888Z,26.36
2022-08-10T16:42:26.065Z,26.35
2022-08-10T16:44:52.476Z,26.35
2022-08-10T16:47:20.218Z,26.36
2022-08-10T16:49:48.207Z,26.37
2022-08-10T16:52:14.566Z,26.36
2022-08-10T16:54:41.425Z,26.34
2022-08-10T16:57:07.832Z,26.35
2022-08-10T16:59:34.217Z,26.35
2022-08-10T17:02:00.637Z,26.34
2022-08-10T17:04:27.119Z,26.34
2022-08-10T17:06:56.120Z,26.35
2022-08-10T17:09:23.121Z,26.35
2022-08-10T17:11:49.620Z,26.34
2022-08-10T17:14:16.267Z,26.34
2022-08-10T17:16:42.733Z,26.34
2022-08-10T17:19:09.302Z,26.34
2022-08-10T17:21:36.080Z,26.34
2022-08-10T17:24:02.624Z,26.33
2022-08-10T17:26:35.774Z,26.33
2022-08-10T17:29:02.709Z,26.34
2022-08-10T17:31:53.948Z,26.34
2022-08-10T17:34:21.278Z,26.34
2022-08-10T17:36:52.185Z,26.33
2022-08-10T17:39:20.877Z,26.33
2022-08-10T17:41:49.257Z,26.33
2022-08-10T17:44:16.070Z,26.33
2022-08-10T17:46:42.728Z,26.33
2022-08-10T17:49:09.209Z,26.33
2022-08-10T17:51:35.573Z,26.33
2022-08-10T17:54:01.954Z,26.33
2022-08-10T17:56:28.468Z,26.34
2022-08-10T17:58:54.790Z,26.34
2022-08-10T18:01:41.346Z,26.33
2022-08-10T18:04:07.446Z,26.33
2022-08-10T18:06:33.866Z,26.33
2022-08-10T18:09:00.472Z,26.33
2022-08-10T18:11:27.127Z,26.33
2022-08-10T18:13:56.218Z,26.34
2022-08-10T18:16:23.135Z,26.33
2022-08-10T18:18:49.637Z,26.33
2022-08-10T18:21:25.009Z,26.33
2022-08-10T18:23:54.466Z,26.33
2022-08-10T18:26:20.869Z,26.34
2022-08-10T18:28:47.214Z,26.34
2022-08-10T18:31:13.653Z,26.34
2022-08-10T18:33:39.934Z,26.34
2022-08-10T18:36:06.319Z,26.34
2022-08-10T18:38:32.665Z,26.34
2022-08-10T18:40:58.989Z,26.34
2022-08-10T18:44:07.125Z,26.35
2022-08-10T18:46:11.734Z,26.34
2022-08-10T18:48:38.109Z,26.35
2022-08-10T18:51:06.254Z,26.34
2022-08-10T18:53:32.815Z,26.34
2022-08-10T18:56:09.019Z,26.35
2022-08-10T18:58:36.221Z,26.36
2022-08-10T19:01:02.570Z,26.34
2022-08-10T19:03:29.106Z,26.34
2022-08-10T19:05:55.499Z,26.34
2022-08-10T19:08:30.433Z,26.34
2022-08-10T19:10:57.936Z,26.34
2022-08-10T19:13:24.270Z,26.34
2022-08-10T19:15:50.615Z,26.33
2022-08-10T19:18:17.338Z,26.33
2022-08-10T19:20:43.922Z,26.33
2022-08-10T19:23:10.270Z,26.34
2022-08-10T19:26:41.265Z,26.33
2022-08-10T19:28:23.047Z,26.33
2022-08-10T19:30:49.397Z,26.33
2022-08-10T19:33:16.169Z,26.33
2022-08-10T19:36:04.266Z,26.32
2022-08-10T19:38:33.520Z,26.33
2022-08-10T19:41:00.111Z,26.33
2022-08-10T19:44:01.618Z,26.32
2022-08-10T19:46:27.442Z,26.32
2022-08-10T19:48:54.534Z,26.31
2022-08-10T19:51:21.263Z,26.32
2022-08-10T19:53:47.626Z,26.31
2022-08-10T19:56:33.064Z,26.32
2022-08-10T19:59:00.308Z,26.31
2022-08-10T20:01:26.747Z,26.31
2022-08-10T20:04:13.177Z,26.31
2022-08-10T20:06:39.638Z,26.30
2022-08-10T20:09:06.186Z,26.30
2022-08-10T20:11:45.090Z,26.30
2022-08-10T20:14:21.498Z,26.30
2022-08-10T20:16:48.822Z,26.30
2022-08-10T20:19:15.374Z,26.29
2022-08-10T20:21:41.672Z,26.30
2022-08-10T20:24:07.974Z,26.29
2022-08-10T20:26:34.359Z,26.29
2022-08-10T20:29:00.668Z,26.29
2022-08-10T20:31:27.285Z,26.28
2022-08-10T20:33:57.405Z,26.27
2022-08-10T20:36:26.707Z,26.28
2022-08-10T20:38:53.105Z,26.27
2022-08-10T20:41:20.254Z,26.27
2022-08-10T20:43:46.834Z,26.28
2022-08-10T20:46:13.214Z,26.28
2022-08-10T20:48:39.576Z,26.27
2022-08-10T20:51:05.946Z,26.27
2022-08-10T20:53:32.359Z,26.26
2022-08-10T20:55:58.738Z,26.26
2022-08-10T20:58:25.063Z,26.27
2022-08-10T21:00:51.517Z,26.26
2022-08-10T21:03:20.967Z,26.26
2022-08-10T21:05:48.655Z,26.27
2022-08-10T21:08:17.988Z,26.27
2022-08-10T21:10:44.293Z,26.26
2022-08-10T21:13:10.721Z,26.25
2022-08-10T21:15:41.966Z,26.25
2022-08-10T21:18:09.206Z,26.25
2022-08-10T21:20:35.750Z,26.25
2022-08-10T21:23:05.323Z,26.25
2022-08-10T21:25:32.090Z,26.25
2022-08-10T21:27:59.546Z,26.25
2022-08-10T21:30:25.870Z,26.25
2022-08-10T21:32:54.208Z,26.26
2022-08-10T21:35:37.733Z,26.25
2022-08-10T21:38:04.634Z,26.27
2022-08-10T21:40:34.583Z,26.24
2022-08-10T21:43:02.025Z,26.24
2022-08-10T21:45:56.990Z,26.24
2022-08-10T21:48:17.212Z,26.23
2022-08-10T21:50:45.714Z,26.24
2022-08-10T21:53:12.746Z,26.22
2022-08-10T21:55:57.081Z,26.22
2022-08-10T21:58:27.409Z,26.22
2022-08-10T22:00:54.071Z,26.23
2022-08-10T22:03:20.537Z,26.23
2022-08-10T22:05:46.913Z,26.20
2022-08-10T22:08:14.895Z,26.20
2022-08-10T22:10:41.693Z,26.21
2022-08-10T22:13:08.357Z,26.18
2022-08-10T22:18:31.495Z,26.19
2022-08-10T22:20:58.305Z,26.20
2022-08-10T22:23:24.747Z,26.16
2022-08-10T22:25:53.810Z,26.16
2022-08-10T22:28:20.212Z,26.15
2022-08-10T22:31:14.909Z,26.12
2022-08-10T22:31:25.895Z,26.18
2022-08-10T22:33:32.782Z,26.14
2022-08-10T22:35:59.113Z,26.12
2022-08-10T22:38:25.732Z,26.12
2022-08-10T22:40:52.120Z,26.10
2022-08-10T22:43:35.183Z,26.10
2022-08-10T22:46:02.222Z,26.11
2022-08-10T22:48:29.065Z,26.15
2022-08-10T22:50:55.370Z,26.11
2022-08-10T22:53:21.983Z,26.11
2022-08-10T22:55:48.337Z,26.11
2022-08-10T22:58:14.689Z,26.10
2022-08-10T23:00:41.084Z,26.11
2022-08-10T23:03:07.966Z,26.08
2022-08-10T23:05:34.406Z,26.09
2022-08-10T23:08:00.845Z,26.10
2022-08-10T23:10:27.151Z,26.10
2022-08-10T23:12:53.855Z,26.08
2022-08-10T23:15:20.187Z,26.10
2022-08-10T23:18:01.449Z,26.10
2022-08-10T23:20:28.887Z,26.06
2022-08-10T23:22:55.291Z,26.08
2022-08-10T23:25:21.796Z,26.08
2022-08-10T23:27:51.322Z,26.08
2022-08-10T23:30:22.587Z,26.05
2022-08-10T23:32:51.415Z,26.05
2022-08-10T23:36:29.692Z,26.05
2022-08-10T23:38:05.038Z,26.05
2022-08-10T23:40:31.538Z,26.05
2022-08-10T23:42:57.902Z,26.06
2022-08-10T23:45:24.248Z,26.04
2022-08-10T23:47:50.579Z,26.03
2022-08-10T23:50:17.098Z,26.05
2022-08-10T23:52:43.591Z,26.01
2022-08-10T23:55:10.334Z,26.02
2022-08-10T23:57:36.881Z,26.02
